Time;durP1;ratioP1;P1;durP2;ratioP2;P2;SDS_P1;SDS_P2;PMS_P1;PMS_P2;Temp;Humidity;BMP_temperature;BMP_pressure;BME280_temperature;BME280_humidity;BME280_pressure;Samples;Min_cycle;Max_cycle;Signal;HPM_P1;HPM_P2
2021/06/21 00:01:24;;;;;;;11.20;8.73;;;;;;;18.75;94.73;100241.75;5041342;28;20071;-82
2021/06/21 00:03:49;;;;;;;12.48;9.05;;;;;;;18.78;95.38;100245.91;5036204;28;20133;-82
2021/06/21 00:06:15;;;;;;;11.35;9.43;;;;;;;18.75;94.65;100244.47;5040352;28;20125;-82
2021/06/21 00:08:40;;;;;;;14.05;9.73;;;;;;;18.61;96.44;100249.22;5056383;28;20068;-82
2021/06/21 00:11:06;;;;;;;12.23;9.02;;;;;;;18.63;95.10;100249.81;5035606;28;20181;-82
2021/06/21 00:13:31;;;;;;;13.65;8.90;;;;;;;18.44;96.97;100243.63;5032735;28;20155;-82
2021/06/21 00:15:56;;;;;;;12.32;9.32;;;;;;;18.35;97.12;100242.25;5057125;28;20406;-82
2021/06/21 00:18:24;;;;;;;11.93;10.30;;;;;;;18.30;98.20;100241.28;5027376;28;20153;-82
2021/06/21 00:20:52;;;;;;;14.18;10.10;;;;;;;18.25;98.64;100231.13;5032072;28;20037;-83
2021/06/21 00:23:18;;;;;;;14.20;10.48;;;;;;;18.36;98.11;100232.25;5022420;28;20041;-82
2021/06/21 00:25:43;;;;;;;13.93;11.00;;;;;;;18.30;98.13;100249.44;5032832;28;20041;-83
2021/06/21 00:28:10;;;;;;;14.98;11.40;;;;;;;18.42;98.31;100255.78;5038556;28;20136;-82
2021/06/21 00:30:35;;;;;;;13.02;10.57;;;;;;;18.40;97.94;100255.16;5040281;28;20037;-82
2021/06/21 00:33:01;;;;;;;15.60;12.05;;;;;;;18.33;98.48;100244.41;5034789;28;20046;-82
2021/06/21 00:35:26;;;;;;;15.73;13.18;;;;;;;18.21;99.01;100230.75;5032493;28;20798;-82
2021/06/21 00:37:51;;;;;;;15.45;11.57;;;;;;;18.14;99.16;100221.84;5040045;28;20044;-83
2021/06/21 00:40:18;;;;;;;14.55;12.88;;;;;;;18.12;99.31;100232.09;5031467;28;20123;-82
2021/06/21 00:42:47;;;;;;;16.50;12.75;;;;;;;18.14;99.67;100232.72;5041044;28;20447;-82
2021/06/21 00:45:14;;;;;;;18.40;13.65;;;;;;;18.11;99.31;100224.19;5048239;28;20065;-82
2021/06/21 00:47:40;;;;;;;16.40;14.00;;;;;;;18.00;100.00;100229.31;5038607;28;20102;-82
2021/06/21 00:50:05;;;;;;;18.30;14.63;;;;;;;18.02;100.00;100224.50;5060347;28;20052;-81
2021/06/21 00:52:31;;;;;;;17.95;14.10;;;;;;;17.89;100.00;100237.38;5047634;28;20029;-82
2021/06/21 00:55:00;;;;;;;19.05;14.52;;;;;;;17.94;100.00;100234.84;5046549;28;20049;-82
2021/06/21 00:57:31;;;;;;;20.88;15.73;;;;;;;17.90;100.00;100226.31;5059877;28;20045;-82
2021/06/21 01:00:20;;;;;;;19.67;15.45;;;;;;;17.82;100.00;100226.63;5043781;28;20103;-82
2021/06/21 01:02:46;;;;;;;17.45;14.48;;;;;;;17.79;100.00;100218.94;5045385;28;20048;-82
2021/06/21 01:05:17;;;;;;;20.83;15.80;;;;;;;17.81;100.00;100222.25;5028314;28;20469;-83
2021/06/21 01:07:42;;;;;;;18.67;14.93;;;;;;;17.74;100.00;100219.56;5032971;28;20386;-83
2021/06/21 01:10:10;;;;;;;19.10;16.05;;;;;;;17.81;100.00;100225.78;5032825;28;20049;-82
2021/06/21 01:12:47;;;;;;;18.60;14.48;;;;;;;17.77;100.00;100213.69;5040711;28;20037;-83
2021/06/21 01:15:27;;;;;;;19.80;15.63;;;;;;;17.84;100.00;100223.66;5027706;28;20046;-82
2021/06/21 01:18:25;;;;;;;17.80;14.93;;;;;;;17.80;100.00;100229.53;5032745;28;20099;-83
2021/06/21 01:20:53;;;;;;;18.67;15.50;;;;;;;17.85;100.00;100230.75;5032032;28;20045;-82
2021/06/21 01:23:37;;;;;;;22.85;16.52;;;;;;;17.81;100.00;100233.94;5045606;28;20167;-82
2021/06/21 01:26:41;;;;;;;21.60;16.35;;;;;;;17.82;100.00;100221.19;5043765;28;20045;-81
2021/06/21 01:29:45;;;;;;;22.15;16.08;;;;;;;17.66;100.00;100211.72;5060204;28;20128;-82
2021/06/21 01:32:16;;;;;;;21.33;17.27;;;;;;;17.68;100.00;100204.19;5036095;28;20045;-81
2021/06/21 01:34:56;;;;;;;19.42;16.20;;;;;;;17.74;100.00;100203.28;5023390;28;20045;-82
2021/06/21 01:37:23;;;;;;;19.17;15.85;;;;;;;17.72;100.00;100194.56;5010726;28;20050;-82
2021/06/21 01:39:54;;;;;;;20.63;14.93;;;;;;;17.68;100.00;100197.94;5013159;28;20061;-82
2021/06/21 01:42:21;;;;;;;17.75;14.88;;;;;;;17.69;100.00;100196.88;5024665;28;20076;-82
2021/06/21 01:45:02;;;;;;;22.65;15.15;;;;;;;17.64;100.00;100192.13;5034673;28;20117;-82
2021/06/21 01:47:30;;;;;;;18.80;14.23;;;;;;;17.52;100.00;100186.63;5037222;28;20040;-83
2021/06/21 01:49:57;;;;;;;14.95;13.02;;;;;;;17.46;100.00;100182.06;5039205;28;20123;-82
2021/06/21 01:52:24;;;;;;;16.10;13.32;;;;;;;17.41;100.00;100164.84;5026029;28;20489;-82
2021/06/21 01:54:56;;;;;;;15.63;12.90;;;;;;;17.34;100.00;100163.00;5022377;28;20418;-81
2021/06/21 01:57:29;;;;;;;16.23;12.48;;;;;;;17.17;100.00;100151.06;5025761;28;20045;-82
2021/06/21 01:59:57;;;;;;;16.83;13.18;;;;;;;17.12;100.00;100157.19;5026044;28;20045;-81
2021/06/21 02:02:24;;;;;;;15.38;12.38;;;;;;;17.09;100.00;100156.78;5040546;28;20045;-82
2021/06/21 02:04:54;;;;;;;18.45;13.38;;;;;;;17.08;100.00;100161.38;5044562;28;20120;-81
2021/06/21 02:07:23;;;;;;;19.83;13.90;;;;;;;17.02;100.00;100156.00;5025000;28;20187;-81
2021/06/21 02:09:52;;;;;;;16.30;13.32;;;;;;;17.03;100.00;100153.09;5025641;28;20037;-82
2021/06/21 02:12:19;;;;;;;;;;;;;;;16.98;100.00;100157.53;5040480;28;20044;-83
2021/06/21 02:14:48;;;;;;;18.52;13.38;;;;;;;16.85;100.00;100156.56;5043011;28;19959;-81
2021/06/21 02:17:14;;;;;;;18.95;14.02;;;;;;;16.92;100.00;100146.50;5048372;28;20037;-82
2021/06/21 02:19:41;;;;;;;17.80;13.40;;;;;;;16.94;100.00;100145.44;5055399;28;20445;-81
2021/06/21 02:22:06;;;;;;;15.82;12.60;;;;;;;16.86;100.00;100146.53;5036540;28;20044;-81
2021/06/21 02:24:35;;;;;;;18.70;13.75;;;;;;;16.87;100.00;100124.66;5028226;28;20056;-81
2021/06/21 02:27:01;;;;;;;20.67;14.88;;;;;;;16.87;100.00;100124.66;5036891;28;20684;-83
2021/06/21 02:29:28;;;;;;;20.40;14.10;;;;;;;16.71;100.00;100111.63;5048348;28;20048;-82
2021/06/21 02:31:54;;;;;;;22.42;14.52;;;;;;;16.76;100.00;100109.13;5055702;28;20036;-82
2021/06/21 02:34:20;;;;;;;15.98;11.65;;;;;;;16.65;100.00;100105.22;5043696;28;20736;-83
2021/06/21 02:36:47;;;;;;;14.85;11.52;;;;;;;16.56;100.00;100103.00;5043303;28;20107;-83
2021/06/21 02:39:12;;;;;;;15.27;11.95;;;;;;;16.54;100.00;100095.09;5059665;28;20044;-83
2021/06/21 02:41:38;;;;;;;14.45;11.23;;;;;;;16.33;100.00;100092.75;5040491;28;20036;-84
2021/06/21 02:44:04;;;;;;;15.80;11.68;;;;;;;16.33;100.00;100104.41;5028051;28;20049;-81
2021/06/21 02:46:30;;;;;;;15.13;11.07;;;;;;;16.25;100.00;100107.38;5047925;28;20118;-83
2021/06/21 02:48:57;;;;;;;13.98;10.73;;;;;;;16.31;100.00;100116.50;5030521;28;20049;-81
2021/06/21 02:51:44;;;;;;;13.40;9.15;;;;;;;16.23;100.00;100128.44;5026046;28;20419;-81
2021/06/21 02:54:16;;;;;;;9.75;8.00;;;;;;;16.11;100.00;100132.88;5056970;28;20143;-84
2021/06/21 02:57:09;;;;;;;10.40;7.78;;;;;;;16.14;100.00;100122.47;5048790;28;20041;-81
2021/06/21 02:59:38;;;;;;;10.25;7.93;;;;;;;16.06;100.00;100132.72;5044049;28;20124;-79
2021/06/21 03:02:06;;;;;;;7.80;6.60;;;;;;;15.98;100.00;100128.38;5045034;28;20125;-81
2021/06/21 03:04:34;;;;;;;8.52;6.30;;;;;;;15.98;100.00;100134.59;5049811;28;20083;-81
2021/06/21 03:07:02;;;;;;;8.85;6.72;;;;;;;16.00;100.00;100129.00;5034622;28;20045;-82
2021/06/21 03:09:29;;;;;;;9.65;6.22;;;;;;;15.95;100.00;100113.38;5040580;28;20073;-82
2021/06/21 03:11:55;;;;;;;7.70;6.25;;;;;;;15.91;100.00;100108.59;5024124;28;20711;-82
2021/06/21 03:14:23;;;;;;;9.05;5.30;;;;;;;15.85;100.00;100113.00;5028296;28;20136;-81
2021/06/21 03:16:51;;;;;;;9.20;5.17;;;;;;;15.79;100.00;100106.59;5050422;28;20041;-82
2021/06/21 03:19:17;;;;;;;6.70;4.90;;;;;;;15.75;100.00;100099.13;5033535;28;20320;-81
2021/06/21 03:21:44;;;;;;;6.60;4.10;;;;;;;15.77;100.00;100097.03;5028824;28;20194;-81
2021/06/21 03:24:13;;;;;;;6.00;3.92;;;;;;;15.78;100.00;100093.28;5033172;28;20579;-80
2021/06/21 03:26:39;;;;;;;;;;;;;;;15.67;100.00;100083.09;5046448;28;20037;-81
2021/06/21 03:29:15;;;;;;;5.25;3.60;;;;;;;15.54;100.00;100079.41;5046172;28;19920;-81
2021/06/21 03:31:44;;;;;;;5.60;3.92;;;;;;;15.58;100.00;100086.06;5040786;28;20053;-81
2021/06/21 03:34:11;;;;;;;5.15;3.83;;;;;;;15.59;100.00;100081.47;5039319;28;20120;-81
2021/06/21 03:36:38;;;;;;;5.38;3.78;;;;;;;15.57;100.00;100072.75;5031637;28;20553;-81
2021/06/21 03:39:05;;;;;;;7.13;4.03;;;;;;;15.52;100.00;100078.78;5033620;28;20041;-82
2021/06/21 03:41:30;;;;;;;6.78;4.20;;;;;;;15.43;100.00;100077.38;5042976;28;20037;-83
2021/06/21 03:43:55;;;;;;;6.68;4.13;;;;;;;15.46;100.00;100066.13;5053551;28;20048;-83
2021/06/21 03:46:21;;;;;;;5.45;3.95;;;;;;;15.42;100.00;100072.16;5061981;28;20484;-81
2021/06/21 03:48:46;;;;;;;5.35;4.28;;;;;;;15.37;100.00;100069.31;5051449;28;20095;-81
2021/06/21 03:51:12;;;;;;;5.78;4.03;;;;;;;15.45;100.00;100069.91;5039370;28;20049;-81
2021/06/21 03:53:38;;;;;;;5.50;3.60;;;;;;;15.44;100.00;100073.63;5056681;28;20402;-81
2021/06/21 03:56:04;;;;;;;5.30;3.80;;;;;;;15.32;100.00;100070.75;5045379;28;20044;-81
2021/06/21 03:58:29;;;;;;;6.03;3.80;;;;;;;15.19;100.00;100078.06;5034698;28;20764;-80
2021/06/21 04:00:55;;;;;;;5.15;4.10;;;;;;;15.24;100.00;100076.38;5046828;28;20048;-81
2021/06/21 04:03:21;;;;;;;5.30;3.55;;;;;;;15.22;100.00;100080.34;5032850;28;20045;-80
2021/06/21 04:05:46;;;;;;;5.68;3.85;;;;;;;15.26;100.00;100081.59;5038910;28;20032;-80
2021/06/21 04:08:14;;;;;;;4.88;3.45;;;;;;;15.16;100.00;100087.41;5033827;28;20510;-81
2021/06/21 04:10:40;;;;;;;5.07;3.67;;;;;;;15.23;100.00;100087.41;5037055;28;20094;-82
2021/06/21 04:13:07;;;;;;;7.20;3.00;;;;;;;15.27;100.00;100077.84;5042894;28;20048;-82
2021/06/21 04:15:32;;;;;;;5.35;3.10;;;;;;;15.20;100.00;100083.28;5058523;28;20044;-82
2021/06/21 04:18:01;;;;;;;4.82;3.15;;;;;;;15.14;100.00;100073.31;5057250;28;20036;-81
2021/06/21 04:20:27;;;;;;;4.90;3.05;;;;;;;15.29;100.00;100081.16;5036169;28;20049;-81
2021/06/21 04:22:53;;;;;;;4.13;2.72;;;;;;;15.16;100.00;100075.78;5037719;28;20040;-82
2021/06/21 04:25:21;;;;;;;4.43;3.08;;;;;;;15.08;100.00;100076.84;5031066;28;20327;-80
2021/06/21 04:27:49;;;;;;;4.00;2.47;;;;;;;15.20;100.00;100082.44;5024746;28;20452;-81
2021/06/21 04:30:18;;;;;;;3.85;2.45;;;;;;;15.15;100.00;100080.38;5041672;28;20128;-81
2021/06/21 04:32:51;;;;;;;3.45;2.20;;;;;;;15.19;100.00;100080.75;5043855;28;20048;-81
2021/06/21 04:35:19;;;;;;;3.85;2.10;;;;;;;15.12;100.00;100087.00;5041633;28;20048;-82
2021/06/21 04:37:46;;;;;;;3.50;2.50;;;;;;;15.09;100.00;100075.81;5045953;28;20104;-80
2021/06/21 04:40:14;;;;;;;3.78;2.25;;;;;;;15.20;100.00;100079.75;5043217;28;20090;-81
2021/06/21 04:42:41;;;;;;;4.25;2.58;;;;;;;15.22;100.00;100074.94;5032300;28;20045;-81
2021/06/21 04:45:08;;;;;;;3.28;2.20;;;;;;;15.11;100.00;100071.84;5033172;28;20500;-82
2021/06/21 04:47:33;;;;;;;3.67;2.40;;;;;;;15.12;100.00;100068.09;5055097;28;20041;-81
2021/06/21 04:50:07;;;;;;;5.03;2.40;;;;;;;15.15;100.00;100072.25;5054466;28;20102;-81
2021/06/21 04:52:34;;;;;;;3.97;2.75;;;;;;;15.23;100.00;100065.81;5037226;28;20040;-81
2021/06/21 04:55:01;;;;;;;3.95;2.60;;;;;;;15.15;100.00;100057.91;5032771;28;20041;-81
2021/06/21 04:57:28;;;;;;;3.63;2.30;;;;;;;15.21;100.00;100062.47;5038373;28;20052;-82
2021/06/21 04:59:54;;;;;;;3.50;2.17;;;;;;;15.10;100.00;100061.25;5058618;28;20135;-81
2021/06/21 05:02:19;;;;;;;3.40;2.35;;;;;;;15.18;100.00;100055.63;5043801;28;20043;-81
2021/06/21 05:04:45;;;;;;;3.53;2.30;;;;;;;15.24;100.00;100040.44;5040846;28;20052;-82
2021/06/21 05:07:10;;;;;;;2.90;2.10;;;;;;;15.30;100.00;100044.97;5041072;28;20088;-81
2021/06/21 05:09:37;;;;;;;3.40;2.10;;;;;;;15.33;100.00;100036.44;5029249;28;20045;-80
2021/06/21 05:12:02;;;;;;;3.03;2.10;;;;;;;15.23;100.00;100042.31;5027496;28;20049;-80
2021/06/21 05:14:28;;;;;;;2.53;1.70;;;;;;;15.12;100.00;100038.38;5040769;28;20046;-82
2021/06/21 05:16:54;;;;;;;3.65;2.05;;;;;;;15.09;100.00;100044.22;5041807;28;20044;-84
2021/06/21 05:19:20;;;;;;;2.88;1.63;;;;;;;14.99;100.00;100043.84;5056842;28;20306;-83
2021/06/21 05:21:45;;;;;;;2.70;1.80;;;;;;;15.17;100.00;100055.84;5045568;28;20599;-81
2021/06/21 05:24:11;;;;;;;2.95;1.90;;;;;;;15.18;100.00;100046.69;5037151;28;20049;-81
2021/06/21 05:26:36;;;;;;;5.05;2.13;;;;;;;15.18;100.00;100052.91;5056924;28;20040;-80
2021/06/21 05:29:01;;;;;;;3.08;1.50;;;;;;;15.04;100.00;100046.72;5058056;28;20037;-82
2021/06/21 05:31:27;;;;;;;2.40;1.50;;;;;;;15.22;100.00;100059.56;5042474;28;20355;-82
2021/06/21 05:33:52;;;;;;;2.50;1.60;;;;;;;15.18;100.00;100063.72;5041575;28;20041;-82
2021/06/21 05:36:18;;;;;;;2.28;1.48;;;;;;;15.23;100.00;100063.91;5054678;28;20049;-81
2021/06/21 05:38:44;;;;;;;3.03;1.40;;;;;;;15.22;100.00;100069.53;5041397;28;20087;-82
2021/06/21 05:41:09;;;;;;;1.98;1.23;;;;;;;15.23;100.00;100071.22;5040326;28;20041;-82
2021/06/21 05:43:35;;;;;;;2.10;1.50;;;;;;;15.17;100.00;100061.25;5058026;28;20033;-80
2021/06/21 05:46:00;;;;;;;3.33;1.45;;;;;;;15.21;100.00;100057.06;5040797;28;20091;-81
2021/06/21 05:48:32;;;;;;;2.15;1.25;;;;;;;15.24;100.00;100060.16;5042812;28;20631;-82
2021/06/21 05:51:01;;;;;;;2.00;1.20;;;;;;;15.26;100.00;100068.09;5034504;28;20048;-82
2021/06/21 05:53:29;;;;;;;1.30;1.10;;;;;;;15.21;100.00;100052.47;5040589;28;20894;-82
2021/06/21 05:55:57;;;;;;;2.20;1.50;;;;;;;15.20;100.00;100042.72;5049503;28;20043;-82
2021/06/21 05:58:23;;;;;;;2.28;1.48;;;;;;;15.22;100.00;100050.59;5029121;28;20251;-82
2021/06/21 06:00:48;;;;;;;2.00;1.35;;;;;;;15.16;100.00;100057.69;5048906;28;20041;-82
2021/06/21 06:03:13;;;;;;;2.38;1.60;;;;;;;15.17;100.00;100053.16;5059673;28;20094;-82
2021/06/21 06:05:39;;;;;;;2.30;1.80;;;;;;;15.30;100.00;100061.19;5061509;28;20036;-82
2021/06/21 06:08:04;;;;;;;3.78;2.10;;;;;;;15.27;100.00;100056.22;5060806;28;20041;-82
2021/06/21 06:10:30;;;;;;;3.00;1.90;;;;;;;15.25;100.00;100052.91;5035586;28;20044;-82
2021/06/21 06:12:56;;;;;;;2.75;1.85;;;;;;;15.23;100.00;100057.69;5030138;28;20399;-82
2021/06/21 06:15:23;;;;;;;2.67;1.80;;;;;;;15.26;100.00;100062.69;5041397;28;20049;-82
2021/06/21 06:17:48;;;;;;;2.83;2.10;;;;;;;15.31;100.00;100058.28;5049013;28;20120;-82
2021/06/21 06:20:14;;;;;;;3.00;1.85;;;;;;;15.18;100.00;100052.09;5043079;28;20040;-82
2021/06/21 06:22:40;;;;;;;2.55;1.98;;;;;;;15.22;100.00;100070.38;5030953;28;20083;-82
2021/06/21 06:25:06;;;;;;;2.58;1.90;;;;;;;15.16;100.00;100063.09;5038638;28;20063;-82
2021/06/21 06:27:31;;;;;;;2.97;1.95;;;;;;;15.19;100.00;100064.53;5051648;28;20045;-82
2021/06/21 06:29:57;;;;;;;2.90;1.98;;;;;;;15.28;100.00;100068.72;5060369;28;20055;-83
2021/06/21 06:32:22;;;;;;;3.10;2.22;;;;;;;15.35;100.00;100064.09;5060199;28;20060;-82
2021/06/21 06:34:48;;;;;;;3.25;2.10;;;;;;;15.25;100.00;100067.25;5038739;28;20060;-82
2021/06/21 06:37:13;;;;;;;2.85;2.17;;;;;;;15.17;100.00;100056.66;5042866;28;20123;-82
2021/06/21 06:39:38;;;;;;;3.30;2.05;;;;;;;15.15;100.00;100053.34;5060984;28;20045;-82
2021/06/21 06:42:05;;;;;;;2.92;2.10;;;;;;;15.19;100.00;100053.75;5044946;28;20069;-82
2021/06/21 06:44:31;;;;;;;2.63;2.17;;;;;;;15.28;100.00;100057.91;5060401;28;20138;-82
2021/06/21 06:46:57;;;;;;;2.72;2.20;;;;;;;15.30;100.00;100066.59;5059696;28;20091;-82
2021/06/21 06:49:22;;;;;;;3.03;2.35;;;;;;;15.19;100.00;100067.25;5032577;28;20124;-83
2021/06/21 06:51:51;;;;;;;3.85;2.78;;;;;;;15.14;100.00;100073.31;5042326;28;20083;-82
2021/06/21 06:56:59;;;;;;;4.53;2.80;;;;;;;15.29;100.00;100079.28;5048399;28;20357;-83
2021/06/21 06:59:30;;;;;;;4.07;2.78;;;;;;;15.27;100.00;100088.66;5045630;28;20654;-82
2021/06/21 07:01:56;;;;;;;3.58;2.78;;;;;;;15.41;100.00;100081.34;5029135;28;20037;-83
2021/06/21 07:04:21;;;;;;;3.17;2.65;;;;;;;15.17;100.00;100085.56;5049885;28;20114;-83
2021/06/21 07:06:49;;;;;;;3.83;3.00;;;;;;;15.32;100.00;100086.97;5027449;28;20045;-83
2021/06/21 07:09:14;;;;;;;4.22;3.03;;;;;;;15.23;100.00;100092.81;5040293;28;20679;-82
2021/06/21 07:11:40;;;;;;;4.07;2.95;;;;;;;15.19;100.00;100092.44;5036670;28;20043;-82
2021/06/21 07:14:07;;;;;;;3.45;2.90;;;;;;;15.24;100.00;100084.50;5040990;28;20041;-83
2021/06/21 07:16:33;;;;;;;4.68;2.90;;;;;;;15.20;100.00;100083.28;5025168;28;20033;-82
2021/06/21 07:18:59;;;;;;;4.50;3.00;;;;;;;15.12;100.00;100081.63;5041216;28;20477;-82
2021/06/21 07:21:24;;;;;;;3.95;3.00;;;;;;;15.27;100.00;100077.84;5044567;28;20134;-83
2021/06/21 07:23:50;;;;;;;5.13;3.85;;;;;;;15.34;100.00;100084.06;5049347;28;20094;-83
2021/06/21 07:26:16;;;;;;;4.22;3.45;;;;;;;15.26;100.00;100081.59;5050021;28;20504;-82
2021/06/21 07:28:42;;;;;;;4.13;2.97;;;;;;;15.14;100.00;100080.59;5046933;28;20083;-82
2021/06/21 07:31:07;;;;;;;3.50;3.08;;;;;;;15.08;100.00;100087.66;5046395;28;20064;-83
2021/06/21 07:33:33;;;;;;;4.60;3.50;;;;;;;15.12;100.00;100095.13;5038496;28;20249;-83
2021/06/21 07:35:59;;;;;;;4.70;3.53;;;;;;;15.11;100.00;100084.53;5043836;28;20561;-82
2021/06/21 07:38:24;;;;;;;3.40;2.90;;;;;;;15.19;100.00;100086.16;5036790;28;20040;-82
2021/06/21 07:40:50;;;;;;;4.15;3.53;;;;;;;15.33;100.00;100087.78;5048261;28;20059;-83
2021/06/21 07:43:15;;;;;;;3.90;3.08;;;;;;;15.20;100.00;100087.84;5037809;28;20386;-83
2021/06/21 07:45:42;;;;;;;3.53;2.92;;;;;;;15.16;100.00;100092.00;5030016;28;20640;-82
2021/06/21 07:48:09;;;;;;;3.30;2.67;;;;;;;15.26;100.00;100095.09;5028877;28;20053;-82
2021/06/21 07:50:35;;;;;;;3.00;2.40;;;;;;;15.29;100.00;100091.97;5047555;28;20413;-83
2021/06/21 07:53:06;;;;;;;2.70;2.40;;;;;;;15.33;100.00;100098.59;5037824;28;21528;-82
2021/06/21 07:55:33;;;;;;;3.97;2.67;;;;;;;15.37;100.00;100093.63;5051512;28;20533;-83
2021/06/21 07:58:01;;;;;;;4.68;2.50;;;;;;;15.37;100.00;100096.34;5044594;28;20045;-83
2021/06/21 08:00:28;;;;;;;4.28;2.40;;;;;;;15.41;100.00;100100.25;5044332;28;20032;-83
2021/06/21 08:02:55;;;;;;;5.43;2.20;;;;;;;15.38;100.00;100097.97;5038404;28;20389;-82
2021/06/21 08:05:22;;;;;;;3.05;2.53;;;;;;;15.31;100.00;100095.31;5049521;28;20136;-83
2021/06/21 08:07:48;;;;;;;3.42;2.78;;;;;;;15.29;100.00;100102.78;5034826;28;20439;-82
2021/06/21 08:10:14;;;;;;;3.50;2.65;;;;;;;15.24;100.00;100108.81;5054386;28;20056;-83
2021/06/21 08:12:42;;;;;;;2.92;2.50;;;;;;;15.28;100.00;100101.13;5045275;28;20550;-83
2021/06/21 08:15:11;;;;;;;3.20;2.30;;;;;;;15.21;100.00;100111.13;5042066;28;20214;-83
2021/06/21 08:17:37;;;;;;;3.10;2.03;;;;;;;15.22;100.00;100107.38;5041386;28;20132;-83
2021/06/21 08:20:09;;;;;;;4.10;2.25;;;;;;;15.33;100.00;100117.53;5049343;28;20149;-82
2021/06/21 08:22:35;;;;;;;2.72;2.17;;;;;;;15.21;100.00;100113.81;5057145;28;20060;-83
2021/06/21 08:25:00;;;;;;;3.28;2.65;;;;;;;15.28;100.00;100114.66;5050993;28;20421;-82
2021/06/21 08:27:26;;;;;;;2.90;2.35;;;;;;;15.33;100.00;100109.41;5017755;28;20040;-83
2021/06/21 08:29:51;;;;;;;3.55;2.28;;;;;;;15.38;100.00;100111.50;5043003;28;20045;-82
2021/06/21 08:32:17;;;;;;;4.00;2.30;;;;;;;15.37;100.00;100115.25;5034110;28;20033;-83
2021/06/21 08:34:43;;;;;;;2.55;2.10;;;;;;;15.37;100.00;100118.78;5037005;28;20041;-83
2021/06/21 08:37:08;;;;;;;4.53;2.30;;;;;;;15.39;100.00;100116.69;5022708;28;20133;-83
2021/06/21 08:39:36;;;;;;;3.08;2.50;;;;;;;15.44;100.00;100113.34;5036560;28;20045;-83
2021/06/21 08:42:02;;;;;;;3.72;2.30;;;;;;;15.36;100.00;100119.81;5025019;28;20048;-83
2021/06/21 08:44:27;;;;;;;2.72;2.40;;;;;;;15.31;100.00;100127.75;5042155;28;20041;-83
2021/06/21 08:46:53;;;;;;;3.90;3.33;;;;;;;15.35;100.00;100121.69;5042269;28;20524;-82
2021/06/21 08:49:19;;;;;;;5.43;3.53;;;;;;;15.42;100.00;100132.50;5033435;28;20122;-82
2021/06/21 08:51:45;;;;;;;4.15;2.90;;;;;;;15.35;100.00;100126.28;5041822;28;20516;-83
2021/06/21 08:54:11;;;;;;;4.47;3.42;;;;;;;15.46;100.00;100136.44;5013505;28;20045;-82
2021/06/21 08:56:36;;;;;;;3.95;3.15;;;;;;;15.46;100.00;100136.44;5036782;28;20750;-83
2021/06/21 08:59:06;;;;;;;5.05;3.58;;;;;;;15.27;100.00;100138.13;5012300;28;20050;-83
2021/06/21 09:01:39;;;;;;;5.75;2.72;;;;;;;15.26;100.00;100141.06;5017259;28;20371;-83
2021/06/21 09:04:07;;;;;;;4.95;3.72;;;;;;;15.22;100.00;100134.38;5007210;28;20073;-82
2021/06/21 09:06:38;;;;;;;4.05;3.10;;;;;;;15.32;100.00;100135.63;5016764;28;20087;-83
2021/06/21 09:09:04;;;;;;;5.05;3.58;;;;;;;15.32;100.00;100142.91;5041578;28;20136;-83
2021/06/21 09:11:45;;;;;;;6.47;4.07;;;;;;;15.32;100.00;100143.75;5017899;28;20076;-84
2021/06/21 09:14:26;;;;;;;5.03;3.85;;;;;;;15.24;100.00;100135.84;5024620;28;20521;-83
2021/06/21 09:17:02;;;;;;;4.13;2.90;;;;;;;15.20;100.00;100147.31;5024775;28;20072;-83
2021/06/21 09:19:29;;;;;;;4.38;2.97;;;;;;;15.17;100.00;100147.72;5018416;28;20486;-82
2021/06/21 09:21:55;;;;;;;3.70;2.67;;;;;;;15.16;100.00;100137.94;5024079;28;20045;-83
2021/06/21 09:24:29;;;;;;;3.53;3.10;;;;;;;15.18;100.00;100147.50;5019786;28;20042;-83
2021/06/21 09:27:00;;;;;;;5.75;4.20;;;;;;;15.08;100.00;100150.63;5017783;28;20038;-82
2021/06/21 09:29:52;;;;;;;3.17;2.20;;;;;;;15.10;100.00;100151.28;5014649;28;20043;-83
2021/06/21 09:32:19;;;;;;;4.10;3.10;;;;;;;15.24;100.00;100153.94;5021541;28;20203;-83
2021/06/21 09:34:45;;;;;;;4.35;3.30;;;;;;;15.22;100.00;100150.59;5056465;28;20106;-82
2021/06/21 09:37:13;;;;;;;2.97;2.63;;;;;;;15.21;100.00;100143.56;5040934;28;20649;-82
2021/06/21 09:39:45;;;;;;;3.22;2.17;;;;;;;15.09;100.00;100149.59;5036521;28;20044;-83
2021/06/21 09:42:10;;;;;;;4.15;2.40;;;;;;;15.16;100.00;100151.44;5039512;28;20401;-82
2021/06/21 09:44:46;;;;;;;3.05;2.22;;;;;;;15.21;100.00;100148.97;5037761;28;20041;-83
2021/06/21 09:47:27;;;;;;;2.47;1.80;;;;;;;15.09;100.00;100149.59;5036088;28;20576;-84
2021/06/21 09:50:08;;;;;;;2.17;1.50;;;;;;;15.05;100.00;100152.94;5044339;28;20036;-83
2021/06/21 09:52:36;;;;;;;1.95;1.30;;;;;;;15.03;100.00;100155.84;5038123;28;20425;-85
2021/06/21 09:55:13;;;;;;;3.53;1.52;;;;;;;15.14;100.00;100153.56;5040350;28;20045;-85
2021/06/21 09:57:39;;;;;;;1.98;1.35;;;;;;;15.07;100.00;100167.06;5041132;28;20041;-83
2021/06/21 10:00:10;;;;;;;1.75;1.23;;;;;;;14.99;100.00;100165.41;5036239;28;20049;-83
2021/06/21 10:02:36;;;;;;;1.73;1.33;;;;;;;14.99;100.00;100178.91;5044454;28;20059;-82
2021/06/21 10:05:03;;;;;;;2.28;1.60;;;;;;;15.00;100.00;100191.38;5033644;28;20378;-83
2021/06/21 10:07:34;;;;;;;2.35;1.40;;;;;;;15.00;100.00;100194.09;5056731;28;20060;-83
2021/06/21 10:10:09;;;;;;;2.78;1.88;;;;;;;14.85;100.00;100196.16;5048855;28;20052;-83
2021/06/21 10:12:35;;;;;;;3.10;1.67;;;;;;;14.90;100.00;100201.75;5058090;28;20049;-83
2021/06/21 10:15:01;;;;;;;2.40;1.90;;;;;;;14.85;100.00;100205.09;5052529;28;20047;-84
2021/06/21 10:17:27;;;;;;;2.83;2.00;;;;;;;14.82;100.00;100210.09;5059698;28;20045;-84
2021/06/21 10:19:53;;;;;;;4.00;1.92;;;;;;;14.84;100.00;100208.81;5041426;28;20378;-82
2021/06/21 10:22:21;;;;;;;2.50;1.80;;;;;;;14.82;100.00;100221.72;5044874;28;20473;-84
2021/06/21 10:24:56;;;;;;;2.75;1.75;;;;;;;14.78;100.00;100225.84;5038105;28;20045;-83
2021/06/21 10:27:24;;;;;;;2.83;1.70;;;;;;;14.73;100.00;100230.19;5050155;28;20495;-84
2021/06/21 10:29:51;;;;;;;2.53;1.70;;;;;;;14.74;100.00;100235.41;5034989;28;20048;-84
2021/06/21 10:32:17;;;;;;;1.90;1.40;;;;;;;14.73;100.00;100241.00;5054802;28;20059;-84
2021/06/21 10:34:47;;;;;;;2.20;1.60;;;;;;;14.80;100.00;100244.56;5054923;28;20037;-85
2021/06/21 10:37:21;;;;;;;1.50;1.00;;;;;;;14.70;100.00;100249.50;5043809;28;20045;-84
2021/06/21 10:39:49;;;;;;;2.88;1.30;;;;;;;14.71;100.00;100246.63;5044489;28;20118;-85
2021/06/21 10:42:19;;;;;;;1.25;0.93;;;;;;;14.72;100.00;100250.97;5038332;28;20051;-85
2021/06/21 10:44:47;;;;;;;2.05;1.50;;;;;;;14.68;100.00;100265.09;5044266;28;20048;-85
2021/06/21 10:47:27;;;;;;;1.43;1.13;;;;;;;14.68;100.00;100273.22;5037800;28;20048;-82
2021/06/21 10:50:07;;;;;;;1.58;1.02;;;;;;;14.69;100.00;100266.75;5036874;28;20317;-81
2021/06/21 10:52:47;;;;;;;2.38;1.10;;;;;;;14.63;100.00;100280.03;5044661;28;20348;-82
2021/06/21 10:55:35;;;;;;;2.35;1.27;;;;;;;14.64;100.00;100284.41;5038326;28;20112;-83
2021/06/21 10:58:28;;;;;;;2.47;1.40;;;;;;;14.59;100.00;100289.59;5051193;28;20037;-83
2021/06/21 11:00:55;;;;;;;2.03;1.50;;;;;;;14.68;100.00;100292.13;5032088;28;20121;-82
2021/06/21 11:05:51;;;;;;;2.13;1.60;;;;;;;14.53;100.00;100303.91;5036773;28;20065;-82
2021/06/21 11:08:22;;;;;;;4.95;1.60;;;;;;;14.70;100.00;100306.22;5038031;28;20314;-82
2021/06/21 11:10:53;;;;;;;2.80;1.30;;;;;;;14.62;100.00;100316.19;5043798;28;20106;-82
2021/06/21 11:13:34;;;;;;;1.63;1.20;;;;;;;14.56;100.00;100308.91;5038753;28;20200;-82
2021/06/21 11:16:14;;;;;;;1.92;1.15;;;;;;;14.60;100.00;100323.66;5037502;28;20040;-82
2021/06/21 11:18:41;;;;;;;1.55;0.90;;;;;;;14.65;100.00;100329.28;5037097;28;20045;-84
2021/06/21 11:21:19;;;;;;;1.55;1.00;;;;;;;14.60;100.00;100330.91;5035504;28;20041;-83
2021/06/21 11:23:47;;;;;;;1.83;1.08;;;;;;;14.64;100.00;100327.63;5031968;28;20041;-83
2021/06/21 11:26:13;;;;;;;1.17;0.90;;;;;;;14.64;100.00;100337.56;5052113;28;20068;-84